SU7PY HECA-ORBI
Flight info
| Callsign | SU7PY |
|---|---|
| Flight time | 2h 29m |
| Altitude | 31000 |
| Route | CVO L677 MENLI N697 SISIK W976 TAKSU L550 KARIK B411 ULINA M319 SESMO DCT KULDI DCT ORNAL L200 SILBO |
| Aircraft | TBM8/L-SDFGRWY/S |
Departure
| Time | 2026-05-06 09:47 |
|---|---|
| Airport | Cairo International Airport (HECA) |
Arrival
| Time | 2026-05-06 12:17 |
|---|---|
| Airport | Baghdad International Airport / New Al Muthana Air Base (ORBI) |
| Time | Latitude | Longitude | Altitude | Speed | Heading |
|---|---|---|---|---|---|
| 2026-05-06 09:23 | 30.12823 | 31.40649 | 369 ft | 0 kts | 252° |
| 2026-05-06 09:39 | 30.12817 | 31.40630 | 369 ft | 3 kts | 250° |
| 2026-05-06 09:40 | 30.12812 | 31.40604 | 369 ft | 5 kts | 273° |
| 2026-05-06 09:40 | 30.12847 | 31.40580 | 369 ft | 3 kts | 343° |
| 2026-05-06 09:41 | 30.12878 | 31.40569 | 369 ft | 6 kts | 345° |
| 2026-05-06 09:41 | 30.12923 | 31.40633 | 369 ft | 12 kts | 72° |
| 2026-05-06 09:41 | 30.12944 | 31.40694 | 369 ft | 11 kts | 56° |
| 2026-05-06 09:41 | 30.12998 | 31.40692 | 369 ft | 6 kts | 342° |
| 2026-05-06 09:42 | 30.13033 | 31.40679 | 369 ft | 5 kts | 342° |
| 2026-05-06 09:42 | 30.13073 | 31.40665 | 369 ft | 7 kts | 342° |
| 2026-05-06 09:42 | 30.13129 | 31.40642 | 369 ft | 10 kts | 328° |
| 2026-05-06 09:42 | 30.13176 | 31.40562 | 369 ft | 14 kts | 301° |
| 2026-05-06 09:43 | 30.13223 | 31.40452 | 369 ft | 17 kts | 290° |
| 2026-05-06 09:43 | 30.13254 | 31.40316 | 369 ft | 18 kts | 278° |
| 2026-05-06 09:43 | 30.13274 | 31.40167 | 369 ft | 20 kts | 271° |
| 2026-05-06 09:43 | 30.13277 | 31.40020 | 369 ft | 19 kts | 202° |
| 2026-05-06 09:44 | 30.13156 | 31.39929 | 369 ft | 23 kts | 232° |
| 2026-05-06 09:44 | 30.13054 | 31.39773 | 369 ft | 25 kts | 228° |
| 2026-05-06 09:44 | 30.12920 | 31.39636 | 369 ft | 26 kts | 232° |
| 2026-05-06 09:44 | 30.12818 | 31.39490 | 369 ft | 21 kts | 231° |
| 2026-05-06 09:45 | 30.12733 | 31.39371 | 369 ft | 18 kts | 229° |
| 2026-05-06 09:45 | 30.12659 | 31.39272 | 369 ft | 15 kts | 229° |
| 2026-05-06 09:45 | 30.12594 | 31.39184 | 369 ft | 15 kts | 229° |
| 2026-05-06 09:45 | 30.12524 | 31.39090 | 369 ft | 17 kts | 230° |
| 2026-05-06 09:46 | 30.12437 | 31.38970 | 369 ft | 21 kts | 232° |
| 2026-05-06 09:46 | 30.12458 | 31.38847 | 369 ft | 16 kts | 347° |
| 2026-05-06 09:46 | 30.12555 | 31.38870 | 367 ft | 13 kts | 16° |
| 2026-05-06 09:46 | 30.12669 | 31.38962 | 369 ft | 40 kts | 45° |
| 2026-05-06 09:47 | 30.12973 | 31.39370 | 369 ft | 92 kts | 49° |
| 2026-05-06 09:47 | 30.13451 | 31.40043 | 501 ft | 119 kts | 51° |
| 2026-05-06 09:47 | 30.13964 | 31.40820 | 885 ft | 127 kts | 52° |
| 2026-05-06 09:47 | 30.14481 | 31.41704 | 1262 ft | 139 kts | 62° |
| 2026-05-06 09:48 | 30.14617 | 31.42835 | 1756 ft | 148 kts | 102° |
| 2026-05-06 09:48 | 30.13985 | 31.43760 | 2344 ft | 154 kts | 152° |
| 2026-05-06 09:48 | 30.12989 | 31.44236 | 2830 ft | 157 kts | 146° |
| 2026-05-06 09:48 | 30.12186 | 31.45061 | 3337 ft | 155 kts | 135° |
| 2026-05-06 09:49 | 30.11380 | 31.45893 | 3808 ft | 156 kts | 138° |
| 2026-05-06 09:49 | 30.10566 | 31.46713 | 4230 ft | 158 kts | 136° |
| 2026-05-06 09:49 | 30.09755 | 31.47566 | 4669 ft | 158 kts | 135° |
| 2026-05-06 09:49 | 30.08937 | 31.48425 | 5110 ft | 160 kts | 137° |
| 2026-05-06 09:50 | 30.08096 | 31.49282 | 5499 ft | 163 kts | 137° |
| 2026-05-06 09:50 | 30.07247 | 31.50156 | 5901 ft | 164 kts | 137° |
| 2026-05-06 09:50 | 30.06384 | 31.51041 | 6339 ft | 167 kts | 139° |
| 2026-05-06 09:50 | 30.05507 | 31.51937 | 6762 ft | 170 kts | 139° |
| 2026-05-06 09:51 | 30.04621 | 31.52843 | 7181 ft | 171 kts | 139° |
| 2026-05-06 09:51 | 30.03729 | 31.53761 | 7590 ft | 172 kts | 139° |
| 2026-05-06 09:51 | 30.02833 | 31.54682 | 8048 ft | 174 kts | 139° |
| 2026-05-06 09:51 | 30.01928 | 31.55616 | 8450 ft | 175 kts | 139° |
| 2026-05-06 09:52 | 30.01023 | 31.56541 | 8863 ft | 176 kts | 140° |
| 2026-05-06 09:52 | 30.00100 | 31.57487 | 9279 ft | 178 kts | 140° |
| 2026-05-06 09:52 | 29.99171 | 31.58439 | 9701 ft | 180 kts | 140° |
| 2026-05-06 09:52 | 29.98231 | 31.59407 | 10092 ft | 181 kts | 140° |
| 2026-05-06 09:53 | 29.97285 | 31.60374 | 10458 ft | 182 kts | 140° |
| 2026-05-06 09:53 | 29.96334 | 31.61351 | 10849 ft | 183 kts | 140° |
| 2026-05-06 09:53 | 29.95376 | 31.62331 | 11215 ft | 185 kts | 141° |
| 2026-05-06 09:53 | 29.94411 | 31.63325 | 11601 ft | 186 kts | 140° |
| 2026-05-06 09:54 | 29.93453 | 31.64310 | 11950 ft | 187 kts | 141° |
| 2026-05-06 09:54 | 29.92474 | 31.65309 | 12339 ft | 189 kts | 141° |
| 2026-05-06 09:54 | 29.91498 | 31.66328 | 12719 ft | 190 kts | 136° |
| 2026-05-06 09:54 | 29.90696 | 31.67560 | 13092 ft | 193 kts | 127° |
| 2026-05-06 09:55 | 29.89903 | 31.68814 | 13488 ft | 194 kts | 129° |
| 2026-05-06 09:55 | 29.89093 | 31.70063 | 13876 ft | 195 kts | 129° |
| 2026-05-06 09:55 | 29.88283 | 31.71328 | 14205 ft | 196 kts | 128° |
| 2026-05-06 09:55 | 29.87469 | 31.72601 | 14530 ft | 198 kts | 129° |
| 2026-05-06 09:56 | 29.86650 | 31.73876 | 14845 ft | 199 kts | 129° |
| 2026-05-06 09:56 | 29.85825 | 31.75162 | 15167 ft | 200 kts | 129° |
| 2026-05-06 09:56 | 29.85010 | 31.76436 | 15490 ft | 201 kts | 129° |
| 2026-05-06 09:56 | 29.84179 | 31.77733 | 15816 ft | 201 kts | 129° |
| 2026-05-06 09:57 | 29.83343 | 31.79032 | 16149 ft | 203 kts | 129° |
| 2026-05-06 09:57 | 29.82502 | 31.80345 | 16477 ft | 204 kts | 129° |
| 2026-05-06 09:57 | 29.81656 | 31.81662 | 16808 ft | 205 kts | 129° |
| 2026-05-06 09:57 | 29.80804 | 31.82987 | 17133 ft | 206 kts | 129° |
| 2026-05-06 09:58 | 29.79950 | 31.84317 | 17451 ft | 207 kts | 129° |
| 2026-05-06 09:58 | 29.79086 | 31.85661 | 17769 ft | 209 kts | 129° |
| 2026-05-06 09:58 | 29.78304 | 31.87072 | 18096 ft | 211 kts | 112° |
| 2026-05-06 09:58 | 29.77932 | 31.88688 | 18413 ft | 213 kts | 103° |
| 2026-05-06 09:59 | 29.77564 | 31.90344 | 18690 ft | 214 kts | 105° |
| 2026-05-06 09:59 | 29.77185 | 31.92004 | 18968 ft | 215 kts | 104° |
| 2026-05-06 09:59 | 29.76816 | 31.93673 | 19252 ft | 216 kts | 104° |
| 2026-05-06 09:59 | 29.76445 | 31.95351 | 19545 ft | 217 kts | 105° |
| 2026-05-06 10:00 | 29.76071 | 31.97032 | 19840 ft | 218 kts | 104° |
| 2026-05-06 10:00 | 29.75699 | 31.98725 | 20120 ft | 219 kts | 104° |
| 2026-05-06 10:00 | 29.75321 | 32.00426 | 20406 ft | 220 kts | 105° |
| 2026-05-06 10:00 | 29.74940 | 32.02134 | 20692 ft | 221 kts | 105° |
| 2026-05-06 10:01 | 29.74558 | 32.03846 | 20976 ft | 221 kts | 105° |
| 2026-05-06 10:01 | 29.73749 | 32.07484 | 21579 ft | 223 kts | 105° |
| 2026-05-06 10:01 | 29.73363 | 32.09220 | 21852 ft | 224 kts | 105° |
| 2026-05-06 10:02 | 29.72973 | 32.10958 | 22134 ft | 225 kts | 105° |
| 2026-05-06 10:02 | 29.72583 | 32.12711 | 22400 ft | 226 kts | 105° |
| 2026-05-06 10:02 | 29.72190 | 32.14470 | 22675 ft | 227 kts | 105° |
| 2026-05-06 10:02 | 29.71795 | 32.16235 | 22942 ft | 229 kts | 105° |
| 2026-05-06 10:03 | 29.71399 | 32.18008 | 23224 ft | 229 kts | 105° |
| 2026-05-06 10:03 | 29.71000 | 32.19792 | 23493 ft | 231 kts | 105° |
| 2026-05-06 10:03 | 29.70598 | 32.21582 | 23749 ft | 232 kts | 105° |
| 2026-05-06 10:03 | 29.70196 | 32.23384 | 23952 ft | 234 kts | 105° |
| 2026-05-06 10:04 | 29.69793 | 32.25174 | 24177 ft | 234 kts | 105° |
| 2026-05-06 10:04 | 29.69384 | 32.26994 | 24391 ft | 235 kts | 106° |
| 2026-05-06 10:04 | 29.68975 | 32.28821 | 24602 ft | 237 kts | 106° |
| 2026-05-06 10:04 | 29.68558 | 32.30669 | 24815 ft | 239 kts | 106° |
| 2026-05-06 10:05 | 29.68142 | 32.32523 | 25023 ft | 240 kts | 106° |
| 2026-05-06 10:05 | 29.67723 | 32.34389 | 25233 ft | 241 kts | 107° |
| 2026-05-06 10:05 | 29.67305 | 32.36244 | 25446 ft | 243 kts | 107° |
| 2026-05-06 10:05 | 29.66880 | 32.38128 | 25648 ft | 244 kts | 107° |
| 2026-05-06 10:06 | 29.66452 | 32.40024 | 25851 ft | 246 kts | 107° |
| 2026-05-06 10:06 | 29.66021 | 32.41934 | 26060 ft | 247 kts | 107° |
| 2026-05-06 10:06 | 29.65589 | 32.43851 | 26264 ft | 248 kts | 107° |
| 2026-05-06 10:06 | 29.65159 | 32.45784 | 26466 ft | 250 kts | 107° |
| 2026-05-06 10:07 | 29.64718 | 32.47724 | 26663 ft | 252 kts | 108° |
| 2026-05-06 10:07 | 29.64272 | 32.49672 | 26861 ft | 253 kts | 108° |
| 2026-05-06 10:07 | 29.63826 | 32.51636 | 27063 ft | 254 kts | 108° |
| 2026-05-06 10:07 | 29.63380 | 32.53608 | 27249 ft | 256 kts | 108° |
| 2026-05-06 10:08 | 29.62930 | 32.55595 | 27446 ft | 257 kts | 108° |
| 2026-05-06 10:08 | 29.62481 | 32.57568 | 27642 ft | 258 kts | 108° |
| 2026-05-06 10:08 | 29.62027 | 32.59568 | 27836 ft | 259 kts | 109° |
| 2026-05-06 10:08 | 29.61569 | 32.61583 | 28026 ft | 261 kts | 109° |
| 2026-05-06 10:09 | 29.61108 | 32.63610 | 28210 ft | 263 kts | 109° |
| 2026-05-06 10:09 | 29.60644 | 32.65646 | 28402 ft | 264 kts | 109° |
| 2026-05-06 10:09 | 29.60180 | 32.67692 | 28586 ft | 265 kts | 108° |
| 2026-05-06 10:09 | 29.59998 | 32.69821 | 28773 ft | 270 kts | 90° |
| 2026-05-06 10:10 | 29.60050 | 32.71989 | 28949 ft | 272 kts | 91° |
| 2026-05-06 10:10 | 29.60060 | 32.74162 | 29139 ft | 273 kts | 92° |
| 2026-05-06 10:10 | 29.60072 | 32.76353 | 29314 ft | 274 kts | 91° |
| 2026-05-06 10:10 | 29.60099 | 32.78526 | 29489 ft | 276 kts | 91° |
| 2026-05-06 10:11 | 29.60124 | 32.80735 | 29667 ft | 277 kts | 91° |
| 2026-05-06 10:11 | 29.60145 | 32.82958 | 29844 ft | 279 kts | 91° |
| 2026-05-06 10:11 | 29.60165 | 32.85202 | 30023 ft | 280 kts | 91° |
| 2026-05-06 10:11 | 29.60187 | 32.87452 | 30191 ft | 282 kts | 91° |
| 2026-05-06 10:12 | 29.60209 | 32.89708 | 30340 ft | 283 kts | 91° |
| 2026-05-06 10:12 | 29.60230 | 32.91972 | 30492 ft | 284 kts | 91° |
| 2026-05-06 10:12 | 29.60250 | 32.94212 | 30649 ft | 284 kts | 91° |
| 2026-05-06 10:12 | 29.60270 | 32.96496 | 30786 ft | 286 kts | 91° |
| 2026-05-06 10:13 | 29.60290 | 32.98781 | 30934 ft | 287 kts | 91° |
| 2026-05-06 10:13 | 29.60310 | 33.01078 | 31079 ft | 288 kts | 92° |
| 2026-05-06 10:13 | 29.60322 | 33.02617 | 31077 ft | 294 kts | 92° |
| 2026-05-06 10:13 | 29.60337 | 33.04995 | 31087 ft | 301 kts | 92° |
| 2026-05-06 10:14 | 29.60381 | 33.10730 | 31091 ft | 316 kts | 91° |
| 2026-05-06 10:14 | 29.60419 | 33.15857 | 31093 ft | 326 kts | 92° |
| 2026-05-06 10:15 | 29.60449 | 33.20259 | 31094 ft | 332 kts | 92° |
| 2026-05-06 10:15 | 29.60484 | 33.25622 | 31087 ft | 339 kts | 92° |
| 2026-05-06 10:16 | 29.60521 | 33.31048 | 31087 ft | 344 kts | 91° |
| 2026-05-06 10:16 | 29.60585 | 33.36579 | 31091 ft | 346 kts | 91° |
| 2026-05-06 10:17 | 29.60592 | 33.42134 | 31093 ft | 348 kts | 91° |
| 2026-05-06 10:17 | 29.60628 | 33.47687 | 31090 ft | 350 kts | 91° |
| 2026-05-06 10:18 | 29.60653 | 33.53304 | 31091 ft | 351 kts | 91° |
| 2026-05-06 10:18 | 29.60676 | 33.58894 | 31092 ft | 352 kts | 91° |
| 2026-05-06 10:19 | 29.60698 | 33.64570 | 31093 ft | 353 kts | 91° |
| 2026-05-06 10:19 | 29.60719 | 33.70196 | 31092 ft | 354 kts | 91° |
| 2026-05-06 10:20 | 29.60734 | 33.75864 | 31090 ft | 355 kts | 91° |
| 2026-05-06 10:20 | 29.60750 | 33.81536 | 31093 ft | 356 kts | 91° |
| 2026-05-06 10:21 | 29.60746 | 33.87226 | 31093 ft | 356 kts | 92° |
| 2026-05-06 10:21 | 29.60740 | 33.92919 | 31093 ft | 356 kts | 92° |
| 2026-05-06 10:22 | 29.60732 | 33.98585 | 31091 ft | 357 kts | 92° |
| 2026-05-06 10:22 | 29.60720 | 34.04288 | 31092 ft | 357 kts | 92° |
| 2026-05-06 10:23 | 29.60707 | 34.09997 | 31091 ft | 358 kts | 92° |
| 2026-05-06 10:23 | 29.60691 | 34.15726 | 31091 ft | 359 kts | 92° |
| 2026-05-06 10:24 | 29.60672 | 34.21469 | 31089 ft | 359 kts | 92° |
| 2026-05-06 10:24 | 29.60666 | 34.27179 | 31089 ft | 359 kts | 91° |
| 2026-05-06 10:25 | 29.60685 | 34.32930 | 31093 ft | 360 kts | 92° |
| 2026-05-06 10:25 | 29.60689 | 34.38693 | 31089 ft | 360 kts | 92° |
| 2026-05-06 10:26 | 29.60695 | 34.44173 | 31087 ft | 361 kts | 92° |
| 2026-05-06 10:26 | 29.60695 | 34.49914 | 31082 ft | 361 kts | 92° |
| 2026-05-06 10:27 | 29.60648 | 34.55681 | 31079 ft | 359 kts | 98° |
| 2026-05-06 10:27 | 29.60164 | 34.58469 | 31075 ft | 353 kts | 113° |
| 2026-05-06 10:27 | 29.59188 | 34.61013 | 31074 ft | 344 kts | 128° |
| 2026-05-06 10:28 | 29.57801 | 34.63202 | 31071 ft | 334 kts | 141° |
| 2026-05-06 10:28 | 29.56150 | 34.64973 | 31074 ft | 324 kts | 152° |
| 2026-05-06 10:28 | 29.52628 | 34.68226 | 31070 ft | 326 kts | 150° |
| 2026-05-06 10:29 | 29.49139 | 34.71544 | 31067 ft | 326 kts | 151° |
| 2026-05-06 10:29 | 29.45708 | 34.74988 | 31061 ft | 336 kts | 140° |
| 2026-05-06 10:30 | 29.44365 | 34.77237 | 31052 ft | 347 kts | 125° |
| 2026-05-06 10:30 | 29.43453 | 34.79834 | 31046 ft | 356 kts | 111° |
| 2026-05-06 10:30 | 29.43026 | 34.82645 | 31045 ft | 361 kts | 97° |
| 2026-05-06 10:30 | 29.42922 | 34.85503 | 31049 ft | 361 kts | 95° |
| 2026-05-06 10:31 | 29.42277 | 34.91170 | 31048 ft | 357 kts | 106° |
| 2026-05-06 10:31 | 29.42132 | 34.94031 | 31045 ft | 362 kts | 88° |
| 2026-05-06 10:31 | 29.42558 | 34.96883 | 31042 ft | 363 kts | 73° |
| 2026-05-06 10:32 | 29.43508 | 34.99546 | 31038 ft | 360 kts | 58° |
| 2026-05-06 10:32 | 29.44919 | 35.01892 | 31042 ft | 355 kts | 44° |
| 2026-05-06 10:32 | 29.48115 | 35.06210 | 31057 ft | 353 kts | 44° |
| 2026-05-06 10:33 | 29.51296 | 35.10513 | 31060 ft | 354 kts | 44° |
| 2026-05-06 10:33 | 29.54457 | 35.14795 | 31053 ft | 354 kts | 44° |
| 2026-05-06 10:34 | 29.57664 | 35.19112 | 31051 ft | 354 kts | 41° |
| 2026-05-06 10:34 | 29.59511 | 35.20913 | 31058 ft | 344 kts | 25° |
| 2026-05-06 10:34 | 29.61522 | 35.22413 | 31061 ft | 344 kts | 24° |
| 2026-05-06 10:35 | 29.65529 | 35.25470 | 31060 ft | 346 kts | 25° |
| 2026-05-06 10:35 | 29.69547 | 35.28508 | 31052 ft | 345 kts | 24° |
| 2026-05-06 10:36 | 29.73558 | 35.31554 | 31055 ft | 346 kts | 24° |
| 2026-05-06 10:36 | 29.77548 | 35.34585 | 31061 ft | 346 kts | 24° |
| 2026-05-06 10:37 | 29.81572 | 35.37644 | 31064 ft | 347 kts | 24° |
| 2026-05-06 10:37 | 29.85602 | 35.40713 | 31076 ft | 347 kts | 24° |
| 2026-05-06 10:38 | 29.89630 | 35.43782 | 31076 ft | 348 kts | 24° |
| 2026-05-06 10:38 | 29.93661 | 35.46857 | 31077 ft | 347 kts | 24° |
| 2026-05-06 10:39 | 29.97697 | 35.49937 | 31078 ft | 347 kts | 24° |
| 2026-05-06 10:39 | 30.01737 | 35.53025 | 31080 ft | 349 kts | 24° |
| 2026-05-06 10:40 | 30.05760 | 35.56105 | 31079 ft | 349 kts | 24° |
| 2026-05-06 10:40 | 30.09806 | 35.59202 | 31076 ft | 349 kts | 24° |
| 2026-05-06 10:41 | 30.13854 | 35.62305 | 31075 ft | 349 kts | 24° |
| 2026-05-06 10:41 | 30.17882 | 35.65394 | 31077 ft | 349 kts | 24° |
| 2026-05-06 10:42 | 30.21927 | 35.68503 | 31079 ft | 349 kts | 23° |
| 2026-05-06 10:42 | 30.25968 | 35.71609 | 31077 ft | 349 kts | 23° |
| 2026-05-06 10:43 | 30.30015 | 35.74725 | 31077 ft | 349 kts | 23° |
| 2026-05-06 10:44 | 30.36095 | 35.79409 | 31078 ft | 350 kts | 23° |
| 2026-05-06 10:44 | 30.40126 | 35.82519 | 31082 ft | 350 kts | 24° |
| 2026-05-06 10:45 | 30.44186 | 35.85655 | 31080 ft | 351 kts | 24° |
| 2026-05-06 10:45 | 30.48252 | 35.88798 | 31081 ft | 351 kts | 24° |
| 2026-05-06 10:46 | 30.52326 | 35.91952 | 31081 ft | 352 kts | 24° |
| 2026-05-06 10:46 | 30.56401 | 35.95108 | 31080 ft | 352 kts | 24° |
| 2026-05-06 10:47 | 30.60487 | 35.98277 | 31083 ft | 353 kts | 24° |
| 2026-05-06 10:47 | 30.64577 | 36.01453 | 31082 ft | 353 kts | 24° |
| 2026-05-06 10:48 | 30.68643 | 36.04613 | 31085 ft | 353 kts | 24° |
| 2026-05-06 10:48 | 30.72734 | 36.07794 | 31087 ft | 353 kts | 24° |
| 2026-05-06 10:49 | 30.76823 | 36.10979 | 31085 ft | 354 kts | 24° |
| 2026-05-06 10:49 | 30.80917 | 36.14170 | 31088 ft | 354 kts | 24° |
| 2026-05-06 10:50 | 30.85017 | 36.17369 | 31094 ft | 355 kts | 24° |
| 2026-05-06 10:50 | 30.89092 | 36.20553 | 31094 ft | 355 kts | 24° |
| 2026-05-06 10:51 | 30.93189 | 36.23756 | 31093 ft | 355 kts | 24° |
| 2026-05-06 10:51 | 30.97301 | 36.26976 | 31096 ft | 355 kts | 24° |
| 2026-05-06 10:52 | 31.01380 | 36.30172 | 31094 ft | 355 kts | 24° |
| 2026-05-06 10:52 | 31.05480 | 36.33387 | 31090 ft | 355 kts | 24° |
| 2026-05-06 10:53 | 31.09577 | 36.36604 | 31092 ft | 355 kts | 24° |
| 2026-05-06 10:53 | 31.13677 | 36.39827 | 31099 ft | 355 kts | 24° |
| 2026-05-06 10:54 | 31.17762 | 36.43042 | 31098 ft | 356 kts | 24° |
| 2026-05-06 10:54 | 31.21863 | 36.46273 | 31099 ft | 356 kts | 24° |
| 2026-05-06 10:55 | 31.25969 | 36.49511 | 31102 ft | 356 kts | 24° |
| 2026-05-06 10:55 | 31.30087 | 36.52761 | 31099 ft | 356 kts | 24° |
| 2026-05-06 10:56 | 31.34123 | 36.56205 | 31100 ft | 360 kts | 28° |
| 2026-05-06 10:56 | 31.38106 | 36.59676 | 31104 ft | 359 kts | 27° |
| 2026-05-06 10:57 | 31.42105 | 36.63192 | 31100 ft | 360 kts | 28° |
| 2026-05-06 10:57 | 31.46110 | 36.66707 | 31102 ft | 360 kts | 28° |
| 2026-05-06 10:58 | 31.50121 | 36.70234 | 31098 ft | 360 kts | 28° |
| 2026-05-06 10:58 | 31.54140 | 36.73772 | 31096 ft | 360 kts | 28° |
| 2026-05-06 10:59 | 31.58158 | 36.77313 | 31102 ft | 361 kts | 28° |
| 2026-05-06 10:59 | 31.62153 | 36.80838 | 31097 ft | 361 kts | 28° |
| 2026-05-06 11:00 | 31.66179 | 36.84393 | 31093 ft | 362 kts | 28° |
| 2026-05-06 11:00 | 31.70181 | 36.87932 | 31100 ft | 362 kts | 28° |
| 2026-05-06 11:01 | 31.74211 | 36.91500 | 31096 ft | 362 kts | 28° |
| 2026-05-06 11:01 | 31.78223 | 36.95055 | 31098 ft | 362 kts | 28° |
| 2026-05-06 11:02 | 31.82247 | 36.98624 | 31094 ft | 363 kts | 28° |
| 2026-05-06 11:02 | 31.86279 | 37.02205 | 31093 ft | 363 kts | 28° |
| 2026-05-06 11:03 | 31.90326 | 37.05804 | 31093 ft | 364 kts | 28° |
| 2026-05-06 11:03 | 31.94373 | 37.09406 | 31090 ft | 364 kts | 28° |
| 2026-05-06 11:04 | 31.98388 | 37.12985 | 31089 ft | 364 kts | 28° |
| 2026-05-06 11:04 | 32.02428 | 37.16589 | 31080 ft | 365 kts | 28° |
| 2026-05-06 11:05 | 32.05817 | 37.19615 | 31085 ft | 365 kts | 28° |
| 2026-05-06 11:05 | 32.09865 | 37.23235 | 31082 ft | 365 kts | 29° |
| 2026-05-06 11:06 | 32.13881 | 37.26829 | 31078 ft | 365 kts | 29° |
| 2026-05-06 11:06 | 32.17926 | 37.30453 | 31079 ft | 365 kts | 29° |
| 2026-05-06 11:07 | 32.21974 | 37.34084 | 31070 ft | 365 kts | 29° |
| 2026-05-06 11:07 | 32.26031 | 37.37728 | 31072 ft | 366 kts | 29° |
| 2026-05-06 11:08 | 32.30053 | 37.41346 | 31067 ft | 366 kts | 29° |
| 2026-05-06 11:08 | 32.34108 | 37.44995 | 31067 ft | 366 kts | 29° |
| 2026-05-06 11:09 | 32.38157 | 37.48644 | 31059 ft | 366 kts | 30° |
| 2026-05-06 11:09 | 32.42212 | 37.52303 | 31058 ft | 366 kts | 30° |
| 2026-05-06 11:10 | 32.46243 | 37.55944 | 31053 ft | 366 kts | 30° |
| 2026-05-06 11:10 | 32.50293 | 37.59606 | 31057 ft | 366 kts | 30° |
| 2026-05-06 11:11 | 32.54342 | 37.63273 | 31055 ft | 365 kts | 30° |
| 2026-05-06 11:11 | 32.58379 | 37.66931 | 31058 ft | 365 kts | 30° |
| 2026-05-06 11:12 | 32.62384 | 37.70566 | 31055 ft | 364 kts | 30° |
| 2026-05-06 11:12 | 32.66411 | 37.74224 | 31057 ft | 364 kts | 30° |
| 2026-05-06 11:13 | 32.70430 | 37.77879 | 31056 ft | 363 kts | 30° |
| 2026-05-06 11:13 | 32.74412 | 37.81506 | 31055 ft | 363 kts | 30° |
| 2026-05-06 11:14 | 32.78349 | 37.85283 | 31052 ft | 369 kts | 41° |
| 2026-05-06 11:14 | 32.79918 | 37.87736 | 31054 ft | 374 kts | 56° |
| 2026-05-06 11:14 | 32.81016 | 37.90547 | 31054 ft | 376 kts | 71° |
| 2026-05-06 11:15 | 32.82675 | 37.96441 | 31055 ft | 375 kts | 72° |
| 2026-05-06 11:15 | 32.84336 | 38.02290 | 31058 ft | 375 kts | 72° |
| 2026-05-06 11:16 | 32.85998 | 38.08184 | 31055 ft | 376 kts | 72° |
| 2026-05-06 11:16 | 32.87695 | 38.14079 | 31052 ft | 376 kts | 72° |
| 2026-05-06 11:17 | 32.89372 | 38.19986 | 31054 ft | 377 kts | 72° |
| 2026-05-06 11:17 | 32.91056 | 38.25900 | 31057 ft | 377 kts | 72° |
| 2026-05-06 11:18 | 32.92735 | 38.31815 | 31058 ft | 377 kts | 72° |
| 2026-05-06 11:18 | 32.94404 | 38.37706 | 31061 ft | 378 kts | 72° |
| 2026-05-06 11:19 | 32.96078 | 38.43629 | 31059 ft | 378 kts | 73° |
| 2026-05-06 11:19 | 32.97756 | 38.49578 | 31053 ft | 378 kts | 73° |
| 2026-05-06 11:20 | 32.99428 | 38.55516 | 31051 ft | 378 kts | 73° |
| 2026-05-06 11:20 | 33.01084 | 38.61412 | 31049 ft | 378 kts | 73° |
| 2026-05-06 11:21 | 33.02750 | 38.67351 | 31050 ft | 378 kts | 73° |
| 2026-05-06 11:21 | 33.04420 | 38.73317 | 31049 ft | 378 kts | 73° |
| 2026-05-06 11:22 | 33.06073 | 38.79233 | 31044 ft | 378 kts | 73° |
| 2026-05-06 11:22 | 33.07735 | 38.85191 | 31049 ft | 379 kts | 74° |
| 2026-05-06 11:23 | 33.09393 | 38.91157 | 31051 ft | 379 kts | 75° |
| 2026-05-06 11:23 | 33.09938 | 38.94203 | 31046 ft | 373 kts | 90° |
| 2026-05-06 11:23 | 33.10008 | 38.97268 | 31049 ft | 369 kts | 97° |
| 2026-05-06 11:24 | 33.10011 | 39.03407 | 31046 ft | 370 kts | 97° |
| 2026-05-06 11:24 | 33.10018 | 39.09516 | 31046 ft | 370 kts | 97° |
| 2026-05-06 11:25 | 33.10017 | 39.15658 | 31046 ft | 370 kts | 97° |
| 2026-05-06 11:25 | 33.10016 | 39.21805 | 31045 ft | 370 kts | 97° |
| 2026-05-06 11:26 | 33.10010 | 39.27945 | 31047 ft | 370 kts | 97° |
| 2026-05-06 11:26 | 33.10002 | 39.34082 | 31047 ft | 370 kts | 97° |
| 2026-05-06 11:27 | 33.09992 | 39.40230 | 31049 ft | 370 kts | 97° |
| 2026-05-06 11:27 | 33.09977 | 39.46372 | 31047 ft | 370 kts | 97° |
| 2026-05-06 11:28 | 33.09961 | 39.52473 | 31043 ft | 370 kts | 97° |
| 2026-05-06 11:28 | 33.09940 | 39.58608 | 31046 ft | 370 kts | 97° |
| 2026-05-06 11:29 | 33.09918 | 39.64746 | 31042 ft | 370 kts | 98° |
| 2026-05-06 11:29 | 33.09891 | 39.70881 | 31046 ft | 370 kts | 98° |
| 2026-05-06 11:30 | 33.09863 | 39.77008 | 31042 ft | 370 kts | 98° |
| 2026-05-06 11:30 | 33.09831 | 39.83132 | 31044 ft | 369 kts | 98° |
| 2026-05-06 11:31 | 33.09797 | 39.89226 | 31042 ft | 369 kts | 98° |
| 2026-05-06 11:31 | 33.09759 | 39.95347 | 31040 ft | 369 kts | 98° |
| 2026-05-06 11:32 | 33.09716 | 40.01462 | 31045 ft | 369 kts | 98° |
| 2026-05-06 11:32 | 33.09671 | 40.07589 | 31041 ft | 369 kts | 98° |
| 2026-05-06 11:33 | 33.09622 | 40.13712 | 31044 ft | 369 kts | 98° |
| 2026-05-06 11:33 | 33.09572 | 40.19790 | 31038 ft | 368 kts | 98° |
| 2026-05-06 11:34 | 33.09517 | 40.25900 | 31039 ft | 368 kts | 98° |
| 2026-05-06 11:34 | 33.09460 | 40.32005 | 31036 ft | 368 kts | 98° |
| 2026-05-06 11:35 | 33.09400 | 40.38103 | 30958 ft | 370 kts | 98° |
| 2026-05-06 11:35 | 33.09363 | 40.41217 | 30715 ft | 378 kts | 98° |
| 2026-05-06 11:35 | 33.09327 | 40.44379 | 30481 ft | 384 kts | 97° |
| 2026-05-06 11:35 | 33.09296 | 40.47547 | 30242 ft | 388 kts | 97° |
| 2026-05-06 11:36 | 33.09264 | 40.50763 | 29986 ft | 388 kts | 97° |
| 2026-05-06 11:36 | 33.09228 | 40.53989 | 29701 ft | 388 kts | 97° |
| 2026-05-06 11:36 | 33.09189 | 40.57212 | 29419 ft | 388 kts | 97° |
| 2026-05-06 11:36 | 33.09150 | 40.60438 | 29139 ft | 389 kts | 97° |
| 2026-05-06 11:37 | 33.09113 | 40.63660 | 28863 ft | 388 kts | 97° |
| 2026-05-06 11:37 | 33.09074 | 40.66883 | 28595 ft | 389 kts | 97° |
| 2026-05-06 11:37 | 33.09033 | 40.70082 | 28327 ft | 389 kts | 97° |
| 2026-05-06 11:37 | 33.08991 | 40.73308 | 28060 ft | 389 kts | 97° |
| 2026-05-06 11:38 | 33.08949 | 40.76532 | 27797 ft | 389 kts | 97° |
| 2026-05-06 11:38 | 33.08906 | 40.79763 | 27535 ft | 389 kts | 97° |
| 2026-05-06 11:38 | 33.08862 | 40.82992 | 27277 ft | 389 kts | 97° |
| 2026-05-06 11:38 | 33.08817 | 40.86220 | 27021 ft | 389 kts | 97° |
| 2026-05-06 11:39 | 33.08774 | 40.89445 | 26764 ft | 389 kts | 97° |
| 2026-05-06 11:39 | 33.08727 | 40.92673 | 26434 ft | 390 kts | 97° |
| 2026-05-06 11:39 | 33.08680 | 40.95919 | 26183 ft | 390 kts | 97° |
| 2026-05-06 11:39 | 33.08633 | 40.99111 | 25940 ft | 390 kts | 97° |
| 2026-05-06 11:40 | 33.08583 | 41.02348 | 25698 ft | 390 kts | 97° |
| 2026-05-06 11:40 | 33.08533 | 41.05586 | 25455 ft | 391 kts | 97° |
| 2026-05-06 11:40 | 33.08482 | 41.08835 | 25215 ft | 391 kts | 97° |
| 2026-05-06 11:40 | 33.08431 | 41.12073 | 24978 ft | 391 kts | 97° |
| 2026-05-06 11:41 | 33.08378 | 41.15315 | 24742 ft | 391 kts | 97° |
| 2026-05-06 11:41 | 33.08321 | 41.18559 | 24508 ft | 390 kts | 98° |
| 2026-05-06 11:41 | 33.08176 | 41.21782 | 24277 ft | 389 kts | 99° |
| 2026-05-06 11:41 | 33.08056 | 41.25006 | 24047 ft | 389 kts | 98° |
| 2026-05-06 11:42 | 33.07948 | 41.28231 | 23818 ft | 389 kts | 98° |
| 2026-05-06 11:42 | 33.07818 | 41.31445 | 23589 ft | 387 kts | 99° |
| 2026-05-06 11:42 | 33.07679 | 41.34652 | 23320 ft | 387 kts | 98° |
| 2026-05-06 11:42 | 33.07552 | 41.37806 | 23053 ft | 386 kts | 98° |
| 2026-05-06 11:43 | 33.07428 | 41.40996 | 22787 ft | 384 kts | 98° |
| 2026-05-06 11:43 | 33.07298 | 41.44183 | 22523 ft | 383 kts | 98° |
| 2026-05-06 11:43 | 33.07165 | 41.47354 | 22260 ft | 382 kts | 98° |
| 2026-05-06 11:44 | 33.06905 | 41.53652 | 21743 ft | 379 kts | 98° |
| 2026-05-06 11:44 | 33.06776 | 41.56743 | 21487 ft | 377 kts | 98° |
| 2026-05-06 11:44 | 33.06645 | 41.59854 | 21236 ft | 375 kts | 98° |
| 2026-05-06 11:44 | 33.06512 | 41.62995 | 20979 ft | 373 kts | 98° |
| 2026-05-06 11:45 | 33.06382 | 41.66038 | 20736 ft | 372 kts | 98° |
| 2026-05-06 11:45 | 33.06251 | 41.69113 | 20491 ft | 370 kts | 98° |
| 2026-05-06 11:45 | 33.06119 | 41.72172 | 20245 ft | 369 kts | 98° |
| 2026-05-06 11:45 | 33.05986 | 41.75221 | 20004 ft | 367 kts | 98° |
| 2026-05-06 11:46 | 33.05854 | 41.78256 | 19764 ft | 366 kts | 98° |
| 2026-05-06 11:46 | 33.05722 | 41.81280 | 19523 ft | 364 kts | 98° |
| 2026-05-06 11:46 | 33.05590 | 41.84287 | 19286 ft | 363 kts | 98° |
| 2026-05-06 11:46 | 33.05456 | 41.87278 | 19052 ft | 360 kts | 98° |
| 2026-05-06 11:47 | 33.05321 | 41.90252 | 18822 ft | 358 kts | 98° |
| 2026-05-06 11:47 | 33.05191 | 41.93210 | 18590 ft | 355 kts | 98° |
| 2026-05-06 11:47 | 33.05062 | 41.96144 | 18359 ft | 353 kts | 98° |
| 2026-05-06 11:47 | 33.04931 | 41.99027 | 18105 ft | 351 kts | 98° |
| 2026-05-06 11:48 | 33.04797 | 42.01934 | 17838 ft | 349 kts | 98° |
| 2026-05-06 11:48 | 33.04709 | 42.03847 | 17664 ft | 348 kts | 98° |
| 2026-05-06 11:48 | 33.04534 | 42.07687 | 17315 ft | 346 kts | 98° |
| 2026-05-06 11:48 | 33.04403 | 42.10540 | 17057 ft | 344 kts | 98° |
| 2026-05-06 11:49 | 33.04271 | 42.13383 | 16799 ft | 342 kts | 98° |
| 2026-05-06 11:49 | 33.04141 | 42.16176 | 16550 ft | 340 kts | 98° |
| 2026-05-06 11:49 | 33.04009 | 42.18985 | 16298 ft | 338 kts | 98° |
| 2026-05-06 11:49 | 33.03877 | 42.21774 | 16050 ft | 336 kts | 98° |
| 2026-05-06 11:50 | 33.03746 | 42.24550 | 15802 ft | 335 kts | 98° |
| 2026-05-06 11:50 | 33.03616 | 42.27320 | 15556 ft | 333 kts | 98° |
| 2026-05-06 11:50 | 33.03485 | 42.30065 | 15311 ft | 331 kts | 98° |
| 2026-05-06 11:50 | 33.03353 | 42.32795 | 15070 ft | 329 kts | 98° |
| 2026-05-06 11:51 | 33.03227 | 42.35518 | 14828 ft | 328 kts | 97° |
| 2026-05-06 11:51 | 33.03133 | 42.38228 | 14591 ft | 327 kts | 96° |
| 2026-05-06 11:51 | 33.03037 | 42.40923 | 14358 ft | 325 kts | 97° |
| 2026-05-06 11:51 | 33.02926 | 42.43608 | 14122 ft | 323 kts | 97° |
| 2026-05-06 11:52 | 33.02815 | 42.46281 | 13885 ft | 322 kts | 97° |
| 2026-05-06 11:52 | 33.02712 | 42.48940 | 13632 ft | 320 kts | 96° |
| 2026-05-06 11:52 | 33.02607 | 42.51584 | 13363 ft | 319 kts | 97° |
| 2026-05-06 11:52 | 33.02498 | 42.54218 | 13107 ft | 317 kts | 96° |
| 2026-05-06 11:53 | 33.02393 | 42.56807 | 12849 ft | 316 kts | 96° |
| 2026-05-06 11:53 | 33.02287 | 42.59414 | 12598 ft | 315 kts | 96° |
| 2026-05-06 11:53 | 33.02180 | 42.62021 | 12344 ft | 313 kts | 96° |
| 2026-05-06 11:53 | 33.02072 | 42.64611 | 12096 ft | 312 kts | 96° |
| 2026-05-06 11:54 | 33.02003 | 42.66320 | 11927 ft | 311 kts | 96° |
| 2026-05-06 11:54 | 33.01896 | 42.68889 | 11680 ft | 310 kts | 96° |
| 2026-05-06 11:54 | 33.01790 | 42.71451 | 11429 ft | 308 kts | 96° |
| 2026-05-06 11:54 | 33.01682 | 42.73992 | 11188 ft | 307 kts | 96° |
| 2026-05-06 11:55 | 33.01575 | 42.76528 | 10943 ft | 305 kts | 96° |
| 2026-05-06 11:55 | 33.01468 | 42.79050 | 10703 ft | 304 kts | 96° |
| 2026-05-06 11:55 | 33.01360 | 42.81565 | 10465 ft | 303 kts | 96° |
| 2026-05-06 11:55 | 33.01253 | 42.84070 | 10226 ft | 302 kts | 96° |
| 2026-05-06 11:56 | 33.01149 | 42.86562 | 10011 ft | 300 kts | 95° |
| 2026-05-06 11:56 | 33.01199 | 42.89016 | 9998 ft | 293 kts | 87° |
| 2026-05-06 11:56 | 33.01401 | 42.91408 | 9997 ft | 287 kts | 86° |
| 2026-05-06 11:56 | 33.01539 | 42.93769 | 9993 ft | 284 kts | 90° |
| 2026-05-06 11:57 | 33.01620 | 42.96110 | 9996 ft | 281 kts | 90° |
| 2026-05-06 11:57 | 33.01720 | 42.98406 | 9995 ft | 280 kts | 89° |
| 2026-05-06 11:57 | 33.01841 | 43.00731 | 9995 ft | 280 kts | 89° |
| 2026-05-06 11:57 | 33.01951 | 43.03043 | 9988 ft | 279 kts | 89° |
| 2026-05-06 11:58 | 33.02054 | 43.05353 | 9989 ft | 279 kts | 89° |
| 2026-05-06 11:58 | 33.02162 | 43.07659 | 9988 ft | 279 kts | 89° |
| 2026-05-06 11:58 | 33.02269 | 43.09963 | 9986 ft | 278 kts | 89° |
| 2026-05-06 11:58 | 33.02376 | 43.12272 | 9989 ft | 278 kts | 89° |
| 2026-05-06 11:59 | 33.02481 | 43.14572 | 9988 ft | 278 kts | 89° |
| 2026-05-06 11:59 | 33.02585 | 43.16876 | 9988 ft | 278 kts | 89° |
| 2026-05-06 11:59 | 33.02692 | 43.19155 | 9987 ft | 278 kts | 89° |
| 2026-05-06 11:59 | 33.02795 | 43.21454 | 9987 ft | 278 kts | 89° |
| 2026-05-06 12:00 | 33.02898 | 43.23762 | 9984 ft | 278 kts | 89° |
| 2026-05-06 12:00 | 33.03001 | 43.26062 | 9984 ft | 278 kts | 89° |
| 2026-05-06 12:00 | 33.03105 | 43.28366 | 9984 ft | 278 kts | 89° |
| 2026-05-06 12:00 | 33.03207 | 43.30663 | 9985 ft | 278 kts | 89° |
| 2026-05-06 12:01 | 33.03310 | 43.32962 | 9984 ft | 278 kts | 89° |
| 2026-05-06 12:01 | 33.03411 | 43.35264 | 9987 ft | 278 kts | 89° |
| 2026-05-06 12:01 | 33.03511 | 43.37564 | 9983 ft | 278 kts | 89° |
| 2026-05-06 12:01 | 33.03612 | 43.39834 | 9983 ft | 278 kts | 89° |
| 2026-05-06 12:02 | 33.03712 | 43.42131 | 9979 ft | 277 kts | 89° |
| 2026-05-06 12:02 | 33.03812 | 43.44459 | 9990 ft | 278 kts | 89° |
| 2026-05-06 12:02 | 33.03912 | 43.46734 | 9982 ft | 279 kts | 89° |
| 2026-05-06 12:02 | 33.04012 | 43.49043 | 9983 ft | 279 kts | 89° |
| 2026-05-06 12:03 | 33.04112 | 43.51351 | 9984 ft | 279 kts | 89° |
| 2026-05-06 12:03 | 33.04207 | 43.53652 | 10018 ft | 277 kts | 89° |
| 2026-05-06 12:03 | 33.04305 | 43.55948 | 10017 ft | 278 kts | 89° |
| 2026-05-06 12:03 | 33.04403 | 43.58251 | 10014 ft | 278 kts | 89° |
| 2026-05-06 12:04 | 33.04501 | 43.60560 | 10012 ft | 279 kts | 90° |
| 2026-05-06 12:04 | 33.04597 | 43.62867 | 10011 ft | 278 kts | 90° |
| 2026-05-06 12:04 | 33.04693 | 43.65172 | 9949 ft | 281 kts | 90° |
| 2026-05-06 12:04 | 33.04790 | 43.67535 | 9699 ft | 288 kts | 89° |
| 2026-05-06 12:05 | 33.04889 | 43.69938 | 9435 ft | 292 kts | 89° |
| 2026-05-06 12:05 | 33.04988 | 43.72337 | 9179 ft | 294 kts | 89° |
| 2026-05-06 12:05 | 33.05087 | 43.74770 | 8926 ft | 294 kts | 89° |
| 2026-05-06 12:05 | 33.05186 | 43.77203 | 8674 ft | 294 kts | 89° |
| 2026-05-06 12:06 | 33.05285 | 43.79638 | 8420 ft | 294 kts | 89° |
| 2026-05-06 12:06 | 33.05384 | 43.82072 | 8172 ft | 294 kts | 89° |
| 2026-05-06 12:06 | 33.05482 | 43.84501 | 7921 ft | 293 kts | 89° |
| 2026-05-06 12:06 | 33.05582 | 43.86935 | 7679 ft | 294 kts | 88° |
| 2026-05-06 12:07 | 33.05675 | 43.89358 | 7436 ft | 292 kts | 89° |
| 2026-05-06 12:07 | 33.05767 | 43.91774 | 7187 ft | 291 kts | 88° |
| 2026-05-06 12:07 | 33.05866 | 43.94180 | 6947 ft | 290 kts | 88° |
| 2026-05-06 12:07 | 33.05961 | 43.96546 | 6708 ft | 289 kts | 88° |
| 2026-05-06 12:08 | 33.06053 | 43.98945 | 6467 ft | 288 kts | 88° |
| 2026-05-06 12:08 | 33.06146 | 44.01325 | 6220 ft | 286 kts | 87° |
| 2026-05-06 12:08 | 33.06237 | 44.03688 | 5964 ft | 283 kts | 88° |
| 2026-05-06 12:08 | 33.06324 | 44.06016 | 5711 ft | 280 kts | 87° |
| 2026-05-06 12:09 | 33.06415 | 44.08315 | 5458 ft | 276 kts | 87° |
| 2026-05-06 12:09 | 33.06498 | 44.10578 | 5214 ft | 271 kts | 87° |
| 2026-05-06 12:09 | 33.06559 | 44.12814 | 4964 ft | 269 kts | 88° |
| 2026-05-06 12:09 | 33.06611 | 44.15033 | 4725 ft | 266 kts | 88° |
| 2026-05-06 12:10 | 33.06630 | 44.17137 | 4464 ft | 239 kts | 89° |
| 2026-05-06 12:10 | 33.06636 | 44.19041 | 4206 ft | 223 kts | 89° |
| 2026-05-06 12:10 | 33.06666 | 44.20857 | 3957 ft | 217 kts | 88° |
| 2026-05-06 12:10 | 33.06696 | 44.22616 | 3708 ft | 214 kts | 88° |
| 2026-05-06 12:11 | 33.06713 | 44.24370 | 3602 ft | 206 kts | 88° |
| 2026-05-06 12:11 | 33.06728 | 44.26051 | 3596 ft | 200 kts | 89° |
| 2026-05-06 12:11 | 33.06742 | 44.27685 | 3595 ft | 196 kts | 88° |
| 2026-05-06 12:11 | 33.06770 | 44.29313 | 3592 ft | 195 kts | 86° |
| 2026-05-06 12:12 | 33.07209 | 44.30802 | 3585 ft | 189 kts | 48° |
| 2026-05-06 12:12 | 33.08293 | 44.31625 | 3443 ft | 189 kts | 17° |
| 2026-05-06 12:12 | 33.09502 | 44.32092 | 3197 ft | 175 kts | 14° |
| 2026-05-06 12:12 | 33.10625 | 44.32514 | 2953 ft | 165 kts | 14° |
| 2026-05-06 12:13 | 33.11724 | 44.32915 | 2710 ft | 170 kts | 14° |
| 2026-05-06 12:13 | 33.12893 | 44.33258 | 2453 ft | 174 kts | 5° |
| 2026-05-06 12:13 | 33.14054 | 44.33063 | 2192 ft | 169 kts | 329° |
| 2026-05-06 12:13 | 33.14987 | 44.32332 | 2102 ft | 156 kts | 328° |
| 2026-05-06 12:14 | 33.15922 | 44.31682 | 2098 ft | 155 kts | 327° |
| 2026-05-06 12:14 | 33.16856 | 44.31016 | 1998 ft | 153 kts | 329° |
| 2026-05-06 12:14 | 33.17757 | 44.30421 | 1822 ft | 145 kts | 326° |
| 2026-05-06 12:14 | 33.18620 | 44.29805 | 1617 ft | 144 kts | 328° |
| 2026-05-06 12:15 | 33.19471 | 44.29236 | 1443 ft | 139 kts | 327° |
| 2026-05-06 12:15 | 33.20307 | 44.28649 | 1251 ft | 138 kts | 327° |
| 2026-05-06 12:15 | 33.21148 | 44.28079 | 1071 ft | 141 kts | 327° |
| 2026-05-06 12:15 | 33.22003 | 44.27489 | 885 ft | 143 kts | 328° |
| 2026-05-06 12:16 | 33.22875 | 44.26900 | 689 ft | 146 kts | 328° |
| 2026-05-06 12:16 | 33.23759 | 44.26287 | 481 ft | 147 kts | 328° |
| 2026-05-06 12:16 | 33.24635 | 44.25689 | 294 ft | 142 kts | 326° |
| 2026-05-06 12:16 | 33.25421 | 44.25152 | 162 ft | 112 kts | 327° |
| 2026-05-06 12:17 | 33.26009 | 44.24744 | 136 ft | 86 kts | 330° |
| 2026-05-06 12:17 | 33.26410 | 44.24470 | 133 ft | 48 kts | 329° |
| 2026-05-06 12:17 | 33.26610 | 44.24323 | 134 ft | 22 kts | 322° |
| 2026-05-06 12:17 | 33.26715 | 44.24217 | 135 ft | 20 kts | 318° |
| 2026-05-06 12:18 | 33.26790 | 44.24104 | 136 ft | 14 kts | 301° |
| 2026-05-06 12:18 | 33.26839 | 44.24005 | 135 ft | 14 kts | 300° |
| 2026-05-06 12:18 | 33.26893 | 44.23903 | 135 ft | 16 kts | 310° |
| 2026-05-06 12:18 | 33.26981 | 44.23818 | 135 ft | 18 kts | 329° |
| 2026-05-06 12:19 | 33.27095 | 44.23740 | 134 ft | 19 kts | 331° |
| 2026-05-06 12:19 | 33.27199 | 44.23671 | 134 ft | 15 kts | 329° |
| 2026-05-06 12:19 | 33.27283 | 44.23612 | 134 ft | 14 kts | 329° |
| 2026-05-06 12:19 | 33.27372 | 44.23548 | 134 ft | 16 kts | 325° |
| 2026-05-06 12:20 | 33.27439 | 44.23443 | 134 ft | 17 kts | 263° |
| 2026-05-06 12:20 | 33.27390 | 44.23324 | 134 ft | 16 kts | 240° |
| 2026-05-06 12:20 | 33.27338 | 44.23213 | 134 ft | 15 kts | 240° |
| 2026-05-06 12:20 | 33.27284 | 44.23102 | 134 ft | 16 kts | 239° |
| 2026-05-06 12:21 | 33.27227 | 44.22988 | 134 ft | 16 kts | 240° |
| 2026-05-06 12:21 | 33.27173 | 44.22875 | 134 ft | 16 kts | 239° |
| 2026-05-06 12:21 | 33.27119 | 44.22762 | 134 ft | 16 kts | 239° |
| 2026-05-06 12:21 | 33.27063 | 44.22650 | 134 ft | 16 kts | 238° |
| 2026-05-06 12:22 | 33.27009 | 44.22538 | 134 ft | 15 kts | 239° |
| 2026-05-06 12:22 | 33.26955 | 44.22426 | 134 ft | 16 kts | 239° |
| 2026-05-06 12:22 | 33.26899 | 44.22315 | 134 ft | 16 kts | 239° |
| 2026-05-06 12:22 | 33.26848 | 44.22202 | 134 ft | 15 kts | 239° |
| 2026-05-06 12:23 | 33.26794 | 44.22095 | 134 ft | 15 kts | 236° |
| 2026-05-06 12:23 | 33.26719 | 44.22088 | 134 ft | 18 kts | 102° |
| 2026-05-06 12:23 | 33.26771 | 44.22244 | 134 ft | 21 kts | 61° |
| 2026-05-06 12:23 | 33.26792 | 44.22377 | 134 ft | 13 kts | 124° |
| 2026-05-06 12:24 | 33.26731 | 44.22432 | 134 ft | 10 kts | 149° |
| 2026-05-06 12:24 | 33.26673 | 44.22472 | 134 ft | 9 kts | 150° |
| 2026-05-06 12:24 | 33.26621 | 44.22510 | 134 ft | 8 kts | 131° |
| 2026-05-06 12:24 | 33.26617 | 44.22561 | 134 ft | 0 kts | 90° |